createdAt,value
2023-12-20T00:01:33.379Z,6.05
2023-12-20T00:04:02.440Z,6.22
2023-12-20T00:06:30.107Z,5.80
2023-12-20T00:08:58.932Z,6.22
2023-12-20T00:11:26.672Z,7.07
2023-12-20T00:13:54.268Z,7.88
2023-12-20T00:16:21.835Z,5.88
2023-12-20T00:18:49.537Z,7.32
2023-12-20T00:21:18.470Z,7.22
2023-12-20T00:23:46.022Z,6.03
2023-12-20T00:26:13.749Z,6.10
2023-12-20T00:28:41.332Z,6.70
2023-12-20T00:31:09.000Z,7.35
2023-12-20T00:33:36.678Z,7.28
2023-12-20T00:36:04.752Z,7.63
2023-12-20T00:38:33.652Z,7.65
2023-12-20T00:41:01.195Z,7.30
2023-12-20T00:43:28.830Z,7.72
2023-12-20T00:45:56.564Z,7.30
2023-12-20T00:48:24.195Z,6.45
2023-12-20T00:50:51.789Z,6.90
2023-12-20T00:53:19.348Z,7.25
2023-12-20T00:55:48.402Z,7.85
2023-12-20T00:58:17.049Z,7.18
2023-12-20T01:00:45.122Z,6.60
2023-12-20T01:03:12.893Z,7.35
2023-12-20T01:05:40.531Z,7.28
2023-12-20T01:08:08.601Z,5.68
2023-12-20T01:10:36.127Z,6.80
2023-12-20T01:13:05.433Z,7.18
2023-12-20T01:15:33.016Z,6.15
2023-12-20T01:18:00.604Z,6.38
2023-12-20T01:20:28.294Z,6.00
2023-12-20T01:22:55.864Z,5.97
2023-12-20T01:25:23.438Z,6.55
2023-12-20T01:27:51.098Z,5.85
2023-12-20T01:30:20.233Z,7.13
2023-12-20T01:32:47.963Z,6.38
2023-12-20T01:35:15.966Z,5.82
2023-12-20T01:37:43.817Z,6.28
2023-12-20T01:40:12.644Z,6.10
2023-12-20T01:42:40.343Z,6.97
2023-12-20T01:45:08.594Z,6.82
2023-12-20T01:47:38.312Z,7.20
2023-12-20T01:50:09.244Z,6.82
2023-12-20T01:52:37.401Z,7.03
2023-12-20T01:55:12.067Z,6.70
2023-12-20T01:57:39.755Z,7.32
2023-12-20T02:00:10.422Z,6.15
2023-12-20T02:02:40.478Z,5.72
2023-12-20T02:05:08.819Z,6.25
2023-12-20T02:07:36.623Z,6.20
2023-12-20T02:10:04.992Z,6.38
2023-12-20T02:12:32.678Z,5.35
2023-12-20T02:15:00.267Z,6.32
2023-12-20T02:17:28.276Z,5.85
2023-12-20T02:19:57.384Z,5.97
2023-12-20T02:22:26.715Z,5.55
2023-12-20T02:24:54.454Z,6.38
2023-12-20T02:27:22.887Z,5.60
2023-12-20T02:29:50.508Z,6.50
2023-12-20T02:32:18.824Z,6.40
2023-12-20T02:34:46.679Z,5.68
2023-12-20T02:37:14.357Z,7.05
2023-12-20T02:39:43.367Z,6.72
2023-12-20T02:42:11.002Z,7.40
2023-12-20T02:44:38.563Z,6.63
2023-12-20T02:47:06.405Z,6.35
2023-12-20T02:49:34.052Z,6.80
2023-12-20T02:52:01.772Z,7.03
2023-12-20T02:54:29.326Z,7.28
2023-12-20T02:56:58.250Z,7.55
2023-12-20T02:59:25.790Z,7.75
2023-12-20T03:01:53.461Z,7.18
2023-12-20T03:04:21.234Z,7.85
2023-12-20T03:06:49.034Z,7.55
2023-12-20T03:09:16.649Z,7.47
2023-12-20T03:11:44.220Z,7.97
2023-12-20T03:14:13.176Z,7.15
2023-12-20T03:16:40.740Z,6.72
2023-12-20T03:19:08.277Z,8.88
2023-12-20T03:21:35.827Z,7.82
2023-12-20T03:24:03.685Z,8.13
2023-12-20T03:26:31.287Z,8.60
2023-12-20T03:28:58.803Z,8.57
2023-12-20T03:31:27.788Z,8.90
2023-12-20T03:33:55.555Z,7.32
2023-12-20T03:36:23.140Z,7.88
2023-12-20T03:38:50.769Z,8.38
2023-12-20T03:41:18.310Z,8.40
2023-12-20T03:43:45.831Z,8.48
2023-12-20T03:46:13.431Z,7.80
2023-12-20T03:48:42.339Z,7.32
2023-12-20T03:51:09.968Z,8.40
2023-12-20T03:53:37.501Z,8.43
2023-12-20T03:56:05.819Z,9.38
2023-12-20T03:58:33.420Z,8.98
2023-12-20T04:01:01.094Z,8.38
2023-12-20T04:03:28.877Z,8.02
2023-12-20T04:05:57.816Z,7.53
2023-12-20T04:08:25.465Z,6.28
2023-12-20T04:10:53.114Z,5.97
2023-12-20T04:13:20.759Z,6.13
2023-12-20T04:15:49.109Z,6.28
2023-12-20T04:18:16.743Z,5.88
2023-12-20T04:20:44.294Z,6.15
2023-12-20T04:23:13.185Z,5.53
2023-12-20T04:25:40.751Z,5.88
2023-12-20T04:28:08.349Z,5.13
2023-12-20T04:30:36.250Z,4.90
2023-12-20T04:33:04.317Z,5.18
2023-12-20T04:35:31.913Z,4.18
2023-12-20T04:37:59.686Z,4.43
2023-12-20T04:40:28.728Z,3.85
2023-12-20T04:42:56.393Z,3.50
2023-12-20T04:45:24.976Z,3.10
2023-12-20T04:47:52.753Z,2.92
2023-12-20T04:50:21.081Z,3.17
2023-12-20T04:52:48.733Z,3.00
2023-12-20T04:55:16.789Z,2.35
2023-12-20T04:57:46.028Z,2.78
2023-12-20T05:00:16.372Z,2.63
2023-12-20T05:02:43.961Z,1.83
2023-12-20T05:05:11.858Z,2.13
2023-12-20T05:07:39.566Z,1.85
2023-12-20T05:10:09.478Z,1.98
2023-12-20T05:12:37.089Z,1.60
2023-12-20T05:15:07.763Z,1.55
2023-12-20T05:17:35.872Z,1.10
2023-12-20T05:20:04.033Z,1.25
2023-12-20T05:22:31.661Z,1.15
2023-12-20T05:24:59.285Z,1.10
2023-12-20T05:27:27.091Z,1.88
2023-12-20T05:29:58.648Z,1.17
2023-12-20T05:32:27.813Z,1.23
2023-12-20T05:34:55.438Z,1.17
2023-12-20T05:37:23.012Z,1.13
2023-12-20T05:39:50.688Z,1.35
2023-12-20T05:42:18.256Z,1.25
2023-12-20T05:44:45.801Z,1.00
2023-12-20T05:47:13.343Z,0.90
2023-12-20T05:49:42.399Z,1.25
2023-12-20T05:52:10.076Z,1.25
2023-12-20T05:54:37.932Z,0.95
2023-12-20T05:57:06.311Z,1.15
2023-12-20T05:59:33.899Z,1.15
2023-12-20T06:02:01.485Z,1.40
2023-12-20T06:04:29.126Z,1.13
2023-12-20T06:06:57.179Z,1.70
2023-12-20T06:09:24.880Z,1.20
2023-12-20T06:11:52.626Z,1.05
2023-12-20T06:14:20.245Z,1.48
2023-12-20T06:16:47.843Z,0.93
2023-12-20T06:19:15.481Z,1.65
2023-12-20T06:21:45.136Z,1.13
2023-12-20T06:24:14.356Z,1.63
2023-12-20T06:26:41.946Z,1.25
2023-12-20T06:29:09.536Z,1.15
2023-12-20T06:31:37.366Z,1.15
2023-12-20T06:34:05.012Z,1.27
2023-12-20T06:36:32.812Z,0.70
2023-12-20T06:39:00.341Z,1.15
2023-12-20T06:41:29.905Z,0.93
2023-12-20T06:43:57.747Z,0.93
2023-12-20T06:46:25.390Z,0.88
2023-12-20T06:48:53.129Z,0.80
2023-12-20T06:51:21.624Z,0.95
2023-12-20T06:53:49.221Z,1.30
2023-12-20T06:56:19.395Z,1.30
2023-12-20T06:58:48.880Z,1.55
2023-12-20T07:01:17.170Z,2.33
2023-12-20T07:03:45.276Z,2.22
2023-12-20T07:06:12.879Z,2.42
2023-12-20T07:08:41.992Z,1.70
2023-12-20T07:11:09.576Z,1.58
2023-12-20T07:13:37.334Z,1.00
2023-12-20T07:16:06.785Z,0.90
2023-12-20T07:18:34.465Z,1.00
2023-12-20T07:21:02.168Z,1.05
2023-12-20T07:23:29.752Z,1.23
2023-12-20T07:25:57.440Z,1.05
2023-12-20T07:28:26.033Z,0.90
2023-12-20T07:30:53.809Z,0.95
2023-12-20T07:33:23.008Z,1.02
2023-12-20T07:35:53.154Z,0.90
2023-12-20T07:38:21.029Z,0.90
2023-12-20T07:40:48.585Z,1.00
2023-12-20T07:43:16.171Z,1.23
2023-12-20T07:45:43.856Z,1.20
2023-12-20T07:48:11.632Z,1.00
2023-12-20T07:50:40.697Z,1.40
2023-12-20T07:53:08.305Z,1.00
2023-12-20T07:55:35.878Z,1.13
2023-12-20T07:58:03.602Z,1.20
2023-12-20T08:00:31.181Z,0.93
2023-12-20T08:02:58.745Z,1.33
2023-12-20T08:05:26.301Z,0.95
2023-12-20T08:07:55.246Z,0.90
2023-12-20T08:10:22.965Z,1.00
2023-12-20T08:12:50.672Z,1.10
2023-12-20T08:15:18.373Z,0.85
2023-12-20T08:17:46.099Z,1.15
2023-12-20T08:20:17.359Z,1.17
2023-12-20T08:22:47.661Z,1.08
2023-12-20T08:25:17.012Z,1.40
2023-12-20T08:27:44.983Z,1.05
2023-12-20T08:30:13.647Z,1.10
2023-12-20T08:32:41.296Z,1.08
2023-12-20T08:35:10.035Z,1.00
2023-12-20T08:37:38.157Z,1.20
2023-12-20T08:40:06.882Z,1.15
2023-12-20T08:42:35.803Z,1.20
2023-12-20T08:45:05.374Z,1.05
2023-12-20T08:47:32.998Z,1.13
2023-12-20T08:50:01.420Z,1.33
2023-12-20T08:52:30.277Z,1.33
2023-12-20T08:54:58.757Z,1.20
2023-12-20T08:57:26.481Z,1.40
2023-12-20T08:59:55.334Z,1.65
2023-12-20T09:02:23.052Z,1.40
2023-12-20T09:04:50.815Z,1.40
2023-12-20T09:07:25.251Z,1.52
2023-12-20T09:09:53.128Z,1.95
2023-12-20T09:12:21.457Z,1.67
2023-12-20T09:14:49.374Z,1.83
2023-12-20T09:17:18.478Z,1.50
2023-12-20T09:19:46.705Z,2.10
2023-12-20T09:22:14.723Z,2.00
2023-12-20T09:24:42.284Z,1.70
2023-12-20T09:27:09.873Z,2.05
2023-12-20T09:29:37.573Z,1.60
2023-12-20T09:32:05.831Z,1.92
2023-12-20T09:34:35.058Z,1.80
2023-12-20T09:37:04.102Z,1.50
2023-12-20T09:39:32.842Z,1.60
2023-12-20T09:42:03.540Z,1.55
2023-12-20T09:44:31.239Z,1.63
2023-12-20T09:46:59.640Z,1.98
2023-12-20T09:49:29.649Z,1.48
2023-12-20T09:51:58.917Z,1.67
2023-12-20T09:54:27.574Z,1.65
2023-12-20T09:56:55.225Z,1.50
2023-12-20T09:59:22.852Z,1.80
2023-12-20T10:01:50.582Z,1.88
2023-12-20T10:04:29.128Z,2.35
2023-12-20T10:06:59.559Z,1.98
2023-12-20T10:09:27.296Z,2.17
2023-12-20T10:11:57.469Z,1.92
2023-12-20T10:14:25.424Z,2.03
2023-12-20T10:16:53.091Z,2.03
2023-12-20T10:19:21.719Z,2.15
2023-12-20T10:21:49.385Z,2.00
2023-12-20T10:24:20.266Z,1.98
2023-12-20T10:26:47.817Z,2.25
2023-12-20T10:29:15.621Z,1.80
2023-12-20T10:31:43.859Z,2.40
2023-12-20T10:34:11.864Z,1.83
2023-12-20T10:36:39.506Z,1.73
2023-12-20T10:39:08.165Z,1.63
2023-12-20T10:41:42.209Z,1.95
2023-12-20T10:44:11.000Z,1.92
2023-12-20T10:46:39.305Z,1.75
2023-12-20T10:49:07.609Z,1.73
2023-12-20T10:51:36.301Z,1.77
2023-12-20T10:54:04.278Z,1.55
2023-12-20T10:56:34.582Z,1.85
2023-12-20T10:59:06.208Z,1.98
2023-12-20T11:01:33.938Z,1.50
2023-12-20T11:04:02.250Z,1.73
2023-12-20T11:06:36.590Z,1.55
2023-12-20T11:09:13.719Z,1.55
2023-12-20T11:12:08.487Z,2.08
2023-12-20T11:14:42.182Z,1.45
2023-12-20T11:17:10.681Z,1.27
2023-12-20T11:19:39.676Z,1.38
2023-12-20T11:22:08.574Z,1.58
2023-12-20T11:24:38.865Z,1.90
2023-12-20T11:27:06.755Z,1.83
2023-12-20T11:29:34.864Z,1.20
2023-12-20T11:32:30.698Z,1.60
2023-12-20T11:35:00.633Z,1.50
2023-12-20T11:37:32.888Z,1.73
2023-12-20T11:40:03.457Z,1.50
2023-12-20T11:42:35.178Z,2.03
2023-12-20T11:45:05.442Z,1.45
2023-12-20T11:47:34.537Z,1.58
2023-12-20T11:50:04.987Z,1.35
2023-12-20T11:52:32.786Z,1.67
2023-12-20T11:55:00.538Z,1.70
2023-12-20T11:57:28.993Z,1.50
2023-12-20T11:59:57.102Z,1.60
2023-12-20T12:02:25.266Z,1.30
2023-12-20T12:04:54.244Z,1.80
2023-12-20T12:07:22.471Z,1.40
2023-12-20T12:09:50.436Z,1.35
2023-12-20T12:12:19.039Z,1.33
2023-12-20T12:14:46.940Z,1.23
2023-12-20T12:17:14.782Z,1.10
2023-12-20T12:19:42.880Z,1.85
2023-12-20T12:22:16.036Z,1.40
2023-12-20T12:24:45.089Z,1.58
2023-12-20T12:27:13.735Z,2.28
2023-12-20T12:29:41.551Z,1.75
2023-12-20T12:32:10.508Z,1.30
2023-12-20T12:34:38.875Z,1.23
2023-12-20T12:37:06.531Z,1.42
2023-12-20T12:39:36.340Z,1.05
2023-12-20T12:42:04.021Z,1.42
2023-12-20T12:44:31.582Z,1.35
2023-12-20T12:46:59.175Z,1.23
2023-12-20T12:49:26.807Z,1.30
2023-12-20T12:51:55.326Z,1.25
2023-12-20T12:54:24.600Z,1.45
2023-12-20T12:56:54.983Z,1.00
2023-12-20T12:59:22.528Z,1.35
2023-12-20T13:01:50.232Z,1.60
2023-12-20T13:04:17.890Z,1.02
2023-12-20T13:06:45.595Z,1.23
2023-12-20T13:09:13.190Z,1.50
2023-12-20T13:11:41.016Z,1.45
2023-12-20T13:14:11.914Z,1.45
2023-12-20T13:16:39.557Z,1.23
2023-12-20T13:19:07.499Z,1.17
2023-12-20T13:21:35.268Z,1.58
2023-12-20T13:24:02.838Z,1.23
2023-12-20T13:26:30.413Z,1.65
2023-12-20T13:28:57.975Z,1.02
2023-12-20T13:31:27.052Z,1.25
2023-12-20T13:33:54.822Z,0.80
2023-12-20T13:36:22.498Z,1.30
2023-12-20T13:38:50.261Z,1.38
2023-12-20T13:41:17.815Z,1.17
2023-12-20T13:43:46.604Z,1.10
2023-12-20T13:46:15.059Z,1.50
2023-12-20T13:48:43.939Z,1.42
2023-12-20T13:51:11.966Z,1.20
2023-12-20T13:53:39.925Z,1.58
2023-12-20T13:56:08.498Z,1.10
2023-12-20T13:58:38.292Z,1.70
2023-12-20T14:03:33.852Z,1.55
2023-12-20T14:06:03.034Z,1.58
2023-12-20T14:08:30.699Z,1.58
2023-12-20T14:10:58.308Z,1.35
2023-12-20T14:13:25.981Z,1.15
2023-12-20T14:15:55.272Z,1.42
2023-12-20T14:18:23.515Z,1.45
2023-12-20T14:20:51.783Z,1.30
2023-12-20T14:23:20.824Z,1.23
2023-12-20T14:25:52.242Z,1.42
2023-12-20T14:28:21.240Z,1.15
2023-12-20T14:30:50.212Z,1.38
2023-12-20T14:33:18.044Z,1.38
2023-12-20T14:35:46.499Z,2.35
2023-12-20T14:38:16.075Z,1.60
2023-12-20T14:40:45.176Z,1.55
2023-12-20T14:43:12.892Z,1.73
2023-12-20T14:45:40.558Z,1.65
2023-12-20T14:48:08.741Z,1.73
2023-12-20T14:50:37.751Z,1.52
2023-12-20T14:53:05.833Z,1.70
2023-12-20T14:55:33.562Z,1.50
2023-12-20T14:58:02.937Z,1.58
2023-12-20T15:00:30.982Z,1.45
2023-12-20T15:02:58.722Z,1.67
2023-12-20T15:05:27.487Z,2.03
2023-12-20T15:07:55.313Z,1.42
2023-12-20T15:10:23.015Z,1.77
2023-12-20T15:12:50.670Z,1.85
2023-12-20T15:15:20.869Z,2.08
2023-12-20T15:17:48.827Z,1.75
2023-12-20T15:20:17.579Z,1.63
2023-12-20T15:22:46.946Z,1.77
2023-12-20T15:25:20.896Z,1.73
2023-12-20T15:27:50.297Z,1.40
2023-12-20T15:30:20.137Z,1.30
2023-12-20T15:32:47.888Z,1.60
2023-12-20T15:35:15.843Z,1.77
2023-12-20T15:37:44.055Z,1.63
2023-12-20T15:40:13.564Z,1.58
2023-12-20T15:42:42.117Z,1.42
2023-12-20T15:45:10.541Z,1.13
2023-12-20T15:47:39.632Z,1.50
2023-12-20T15:50:08.971Z,2.05
2023-12-20T15:52:38.223Z,1.58
2023-12-20T15:55:06.746Z,1.75
2023-12-20T15:57:45.032Z,1.38
2023-12-20T16:00:18.155Z,2.28
2023-12-20T16:02:47.149Z,1.60
2023-12-20T16:05:15.200Z,1.70
2023-12-20T16:07:43.944Z,1.70
2023-12-20T16:10:11.930Z,1.55
2023-12-20T16:12:39.582Z,2.15
2023-12-20T16:15:09.356Z,1.90
2023-12-20T16:17:37.761Z,1.55
2023-12-20T16:20:08.368Z,2.60
2023-12-20T16:22:36.081Z,1.67
2023-12-20T16:25:03.727Z,1.55
2023-12-20T16:27:31.440Z,1.58
2023-12-20T16:29:59.007Z,1.48
2023-12-20T16:32:26.579Z,1.67
2023-12-20T16:34:54.475Z,1.70
2023-12-20T16:37:23.478Z,1.65
2023-12-20T16:39:51.099Z,1.40
2023-12-20T16:42:18.960Z,1.50
2023-12-20T16:44:46.529Z,1.42
2023-12-20T16:47:14.178Z,2.05
2023-12-20T16:49:41.861Z,1.60
2023-12-20T16:52:09.679Z,1.85
2023-12-20T16:54:38.689Z,1.73
2023-12-20T16:57:06.739Z,1.60
2023-12-20T16:59:34.336Z,1.55
2023-12-20T17:02:03.095Z,1.80
2023-12-20T17:04:33.612Z,2.00
2023-12-20T17:07:01.234Z,1.70
2023-12-20T17:09:31.363Z,1.67
2023-12-20T17:12:00.998Z,1.88
2023-12-20T17:14:28.765Z,1.77
2023-12-20T17:16:56.610Z,1.40
2023-12-20T17:19:25.072Z,1.92
2023-12-20T17:21:53.087Z,1.55
2023-12-20T17:24:20.662Z,1.90
2023-12-20T17:26:48.268Z,1.92
2023-12-20T17:29:17.171Z,1.30
2023-12-20T17:31:44.767Z,1.77
2023-12-20T17:34:13.083Z,2.10
2023-12-20T17:36:42.707Z,1.67
2023-12-20T17:39:10.951Z,1.95
2023-12-20T17:41:39.187Z,1.70
2023-12-20T17:44:07.139Z,2.05
2023-12-20T17:46:36.063Z,1.88
2023-12-20T17:49:03.937Z,2.03
2023-12-20T17:51:31.680Z,1.83
2023-12-20T17:54:01.579Z,1.92
2023-12-20T17:56:30.504Z,1.95
2023-12-20T17:58:58.134Z,1.58
2023-12-20T18:01:25.785Z,1.75
2023-12-20T18:03:54.864Z,2.00
2023-12-20T18:06:22.594Z,1.80
2023-12-20T18:08:50.249Z,2.30
2023-12-20T18:11:18.027Z,1.63
2023-12-20T18:13:45.614Z,1.70
2023-12-20T18:16:13.251Z,1.80
2023-12-20T18:18:40.980Z,1.40
2023-12-20T18:21:10.283Z,1.30
2023-12-20T18:23:37.909Z,1.88
2023-12-20T18:26:05.798Z,1.85
2023-12-20T18:28:33.464Z,1.90
2023-12-20T18:31:01.299Z,1.92
2023-12-20T18:33:29.169Z,1.80
2023-12-20T18:35:56.784Z,2.05
2023-12-20T18:38:29.977Z,1.65
2023-12-20T18:40:57.838Z,1.77
2023-12-20T18:43:26.815Z,1.77
2023-12-20T18:45:56.847Z,1.52
2023-12-20T18:48:26.014Z,1.48
2023-12-20T18:50:53.684Z,1.60
2023-12-20T18:53:21.259Z,1.52
2023-12-20T18:55:50.222Z,2.15
2023-12-20T18:58:17.834Z,2.13
2023-12-20T19:00:45.497Z,1.80
2023-12-20T19:03:13.063Z,1.60
2023-12-20T19:05:40.661Z,1.65
2023-12-20T19:08:09.690Z,2.05
2023-12-20T19:10:37.288Z,1.52
2023-12-20T19:13:06.812Z,1.73
2023-12-20T19:15:34.405Z,1.90
2023-12-20T19:18:02.133Z,1.52
2023-12-20T19:20:29.775Z,1.98
2023-12-20T19:22:57.414Z,1.75
2023-12-20T19:25:25.013Z,1.75
2023-12-20T19:27:52.756Z,2.00
2023-12-20T19:30:21.721Z,1.90
2023-12-20T19:32:49.333Z,1.50
2023-12-20T19:35:17.129Z,1.42
2023-12-20T19:37:45.229Z,1.63
2023-12-20T19:40:13.323Z,1.75
2023-12-20T19:42:41.044Z,1.80
2023-12-20T19:45:10.947Z,1.67
2023-12-20T19:47:39.945Z,1.90
2023-12-20T19:50:08.450Z,1.60
2023-12-20T19:52:36.180Z,2.00
2023-12-20T19:55:04.214Z,2.38
2023-12-20T19:57:32.597Z,2.22
2023-12-20T20:00:00.267Z,1.73
2023-12-20T20:02:27.960Z,2.33
2023-12-20T20:04:57.164Z,1.83
2023-12-20T20:07:26.290Z,2.05
2023-12-20T20:09:53.951Z,1.42
2023-12-20T20:12:21.582Z,2.33
2023-12-20T20:14:49.144Z,2.03
2023-12-20T20:17:16.813Z,1.83
2023-12-20T20:19:44.412Z,1.92
2023-12-20T20:22:13.608Z,2.25
2023-12-20T20:24:41.848Z,1.98
2023-12-20T20:27:09.802Z,2.13
2023-12-20T20:29:37.490Z,1.92
2023-12-20T20:32:05.979Z,1.55
2023-12-20T20:34:33.642Z,1.60
2023-12-20T20:37:02.114Z,2.25
2023-12-20T20:39:31.052Z,1.92
2023-12-20T20:41:58.684Z,1.58
2023-12-20T20:44:26.384Z,1.88
2023-12-20T20:46:54.003Z,1.63
2023-12-20T20:49:22.121Z,2.13
2023-12-20T20:51:50.057Z,2.05
2023-12-20T20:54:19.154Z,1.40
2023-12-20T20:56:48.630Z,1.90
2023-12-20T20:59:16.280Z,1.52
2023-12-20T21:01:45.009Z,1.50
2023-12-20T21:04:13.626Z,2.20
2023-12-20T21:06:41.642Z,1.90
2023-12-20T21:09:10.507Z,2.33
2023-12-20T21:11:38.131Z,1.92
2023-12-20T21:14:07.051Z,2.20
2023-12-20T21:16:34.833Z,1.55
2023-12-20T21:19:05.354Z,1.77
2023-12-20T21:21:34.610Z,2.17
2023-12-20T21:24:02.194Z,1.90
2023-12-20T21:26:29.840Z,1.98
2023-12-20T21:28:57.577Z,2.05
2023-12-20T21:31:26.659Z,1.50
2023-12-20T21:33:55.922Z,2.03
2023-12-20T21:36:23.688Z,1.38
2023-12-20T21:38:51.472Z,1.90
2023-12-20T21:41:23.406Z,1.70
2023-12-20T21:43:52.381Z,2.08
2023-12-20T21:46:20.153Z,1.98
2023-12-20T21:48:49.168Z,1.48
2023-12-20T21:51:18.698Z,1.70
2023-12-20T21:53:46.279Z,2.05
2023-12-20T21:56:13.950Z,1.92
2023-12-20T21:58:42.039Z,1.67
2023-12-20T22:01:09.794Z,2.03
2023-12-20T22:03:40.438Z,1.75
2023-12-20T22:06:10.571Z,2.40
2023-12-20T22:08:38.203Z,2.25
2023-12-20T22:11:05.946Z,1.95
2023-12-20T22:13:34.136Z,2.83
2023-12-20T22:16:01.916Z,2.55
2023-12-20T22:18:29.648Z,2.05
2023-12-20T22:20:57.225Z,2.35
2023-12-20T22:23:26.186Z,2.45
2023-12-20T22:25:53.894Z,2.00
2023-12-20T22:28:21.675Z,2.35
2023-12-20T22:30:49.609Z,2.25
2023-12-20T22:33:19.028Z,2.30
2023-12-20T22:35:47.137Z,2.50
2023-12-20T22:38:14.806Z,2.22
2023-12-20T22:40:44.035Z,2.58
2023-12-20T22:43:11.676Z,2.35
2023-12-20T22:45:41.450Z,2.50
2023-12-20T22:48:09.649Z,2.83
2023-12-20T22:50:37.329Z,2.70
2023-12-20T22:53:05.161Z,2.75
2023-12-20T22:55:32.801Z,2.88
2023-12-20T22:58:01.857Z,2.38
2023-12-20T23:00:29.457Z,2.22
2023-12-20T23:02:57.412Z,2.88
2023-12-20T23:05:25.001Z,2.60
2023-12-20T23:07:53.150Z,2.75
2023-12-20T23:10:25.503Z,2.78
2023-12-20T23:12:53.202Z,2.35
2023-12-20T23:15:22.215Z,2.55
2023-12-20T23:17:50.247Z,2.85
2023-12-20T23:20:18.198Z,2.67
2023-12-20T23:22:45.853Z,2.15
2023-12-20T23:25:13.497Z,2.80
2023-12-20T23:27:44.028Z,3.03
2023-12-20T23:30:12.551Z,2.25
2023-12-20T23:32:41.624Z,1.92
2023-12-20T23:35:15.839Z,2.65
2023-12-20T23:37:44.854Z,1.70
2023-12-20T23:40:13.391Z,2.60
2023-12-20T23:42:41.022Z,2.08
2023-12-20T23:45:09.580Z,2.08
2023-12-20T23:47:37.243Z,2.25
2023-12-20T23:50:07.087Z,2.05
2023-12-20T23:52:34.839Z,1.83
2023-12-20T23:55:02.640Z,2.03
2023-12-20T23:57:30.238Z,2.05
2023-12-20T23:59:57.828Z,1.80
